Terminal Aerodrome Forecast
Issued by NWS

Home | Current Version | Previous Version | Text Only | Print | Product List | Glossary On
Versions: 1 2 3 4 5 6 7 8 9 10 11 12 13 14 15 16 17 18 19
511
FTUS43 KMQT 011738
TAFIWD
TAF
KIWD 011738Z 0118/0218 06005KT P6SM BKN070
     FM020200 04003KT P6SM OVC100
     FM020900 00000KT 2SM BR BKN003
     FM021400 33005KT P6SM SCT003=

USA.gov is the U.S. government's official web portal to all federal, state and local government web resources and services.